| time (UTC) | temp F | wind direction | speed knots | gust knots | rain 1hr in | rain 24hr in | rain mn in | humidity % | barometer mb |
| 20260510020016 | 52 | 173 | 0.0 | 1.7 | 0.00 | 0.17 | 0.17 | 90 | 1010.2 |
| 20260510014520 | 52 | 173 | 0.0 | 1.7 | 0.00 | 0.17 | 0.17 | 89 | 1010.0 |
| 20260510013028 | 53 | 173 | 0.0 | 0.9 | 0.00 | 0.17 | 0.17 | 87 | 1009.9 |
| 20260510011526 | 54 | 179 | 0.0 | 0.0 | 0.00 | 0.17 | 0.17 | 85 | 1009.9 |
| 20260510010010 | 54 | 179 | 0.0 | 1.7 | 0.00 | 0.17 | 0.17 | 84 | 1009.7 |
| 20260510004516 | 55 | 179 | 0.0 | 1.7 | 0.00 | 0.17 | 0.17 | 84 | 1009.8 |
| 20260510003005 | 56 | 171 | 0.0 | 0.0 | 0.00 | 0.17 | 0.17 | 82 | 1009.7 |
| 20260510001513 | 58 | 171 | 0.0 | 0.9 | 0.00 | 0.17 | 0.17 | 77 | 1009.4 |
| 20260510000012 | 59 | 181 | 0.0 | 1.7 | 0.00 | 0.17 | 0.17 | 76 | 1009.4 |
| 20260509234517 | 60 | 181 | 0.0 | 2.6 | 0.00 | 0.17 | 0.17 | 72 | 1009.3 |
| 20260509233022 | 61 | 220 | 0.9 | 2.6 | 0.00 | 0.17 | 0.17 | 70 | 1009.1 |
| 20260509231505 | 62 | 193 | 1.7 | 2.6 | 0.00 | 0.17 | 0.17 | 69 | 1009.1 |
| 20260509230008 | 62 | 179 | 0.9 | 4.3 | 0.00 | 0.17 | 0.17 | 68 | 1009.3 |
| 20260509224514 | 62 | 150 | 0.9 | 4.3 | 0.00 | 0.17 | 0.17 | 69 | 1009.2 |
| 20260509223018 | 62 | 233 | 0.9 | 3.5 | 0.00 | 0.17 | 0.17 | 70 | 1009.1 |
| 20260509221526 | 62 | 196 | 0.0 | 3.5 | 0.00 | 0.17 | 0.17 | 70 | 1009.1 |
| 20260509220008 | 62 | 207 | 1.7 | 2.6 | 0.00 | 0.17 | 0.17 | 69 | 1009.2 |
| 20260509214513 | 61 | 211 | 0.9 | 4.3 | 0.00 | 0.17 | 0.17 | 70 | 1009.3 |
| 20260509213019 | 60 | 233 | 0.0 | 1.7 | 0.00 | 0.17 | 0.17 | 74 | 1009.4 |
| 20260509211526 | 59 | 8 | 0.0 | 1.7 | 0.00 | 0.17 | 0.17 | 74 | 1009.9 |
| 20260509210007 | 59 | 288 | 0.9 | 1.7 | 0.00 | 0.17 | 0.17 | 74 | 1010.0 |
| 20260509204518 | 60 | 360 | 0.0 | 1.7 | 0.00 | 0.17 | 0.17 | 75 | 1009.8 |
| 20260509203015 | 59 | 57 | 0.9 | 1.7 | 0.00 | 0.17 | 0.17 | 74 | 1009.6 |
| 20260509201520 | 59 | 113 | 0.0 | 1.7 | 0.00 | 0.17 | 0.17 | 76 | 1010.0 |
| 20260509200022 | 60 | 6 | 0.9 | 1.7 | 0.00 | 0.17 | 0.17 | 73 | 1010.2 |
| 20260509194509 | 60 | 295 | 1.7 | 3.5 | 0.00 | 0.17 | 0.17 | 74 | 1010.2 |
| 20260509193013 | 60 | 231 | 1.7 | 4.3 | 0.00 | 0.17 | 0.17 | 73 | 1010.3 |
| 20260509191518 | 59 | 245 | 1.7 | 5.2 | 0.00 | 0.17 | 0.17 | 75 | 1010.5 |
| 20260509190024 | 58 | 183 | 1.7 | 6.1 | 0.01 | 0.17 | 0.17 | 81 | 1010.6 |
| 20260509184532 | 57 | 86 | 0.9 | 5.2 | 0.01 | 0.17 | 0.17 | 82 | 1010.7 |
| 20260509183011 | 56 | 145 | 0.9 | 2.6 | 0.01 | 0.17 | 0.17 | 87 | 1010.8 |
| 20260509181516 | 55 | 187 | 0.9 | 1.7 | 0.01 | 0.17 | 0.17 | 86 | 1010.9 |
| 20260509180023 | 54 | 243 | 0.9 | 2.6 | 0.01 | 0.16 | 0.16 | 87 | 1011.2 |
| 20260509174524 | 54 | 222 | 0.0 | 1.7 | 0.01 | 0.16 | 0.16 | 88 | 1011.2 |
| 20260509173026 | 54 | 283 | 0.0 | 1.7 | 0.01 | 0.16 | 0.16 | 87 | 1011.1 |
| 20260509171515 | 54 | 163 | 0.0 | 1.7 | 0.02 | 0.16 | 0.16 | 87 | 1011.1 |
| 20260509170020 | 53 | 149 | 0.9 | 2.6 | 0.04 | 0.15 | 0.15 | 86 | 1011.2 |
| 20260509164523 | 53 | 140 | 0.0 | 0.9 | 0.09 | 0.15 | 0.15 | 83 | 1011.3 |
| 20260509163025 | 53 | 35 | 0.0 | 1.7 | 0.13 | 0.15 | 0.15 | 85 | 1011.2 |
| 20260509161513 | 53 | 8 | 0.9 | 1.7 | 0.13 | 0.14 | 0.14 | 87 | 1011.1 |
| 20260509160015 | 53 | 332 | 0.0 | 1.7 | 0.10 | 0.11 | 0.11 | 85 | 1011.5 |
| 20260509154524 | 53 | 250 | 0.0 | 2.6 | 0.06 | 0.06 | 0.06 | 84 | 1012.0 |
| 20260509153008 | 54 | 216 | 0.9 | 2.6 | 0.02 | 0.02 | 0.02 | 81 | 1011.9 |
| 20260509151508 | 54 | 204 | 1.7 | 4.3 | 0.01 | 0.01 | 0.01 | 79 | 1011.9 |
| 20260509150018 | 55 | 227 | 0.9 | 3.5 | 0.01 | 0.01 | 0.01 | 74 | 1011.9 |
| 20260509144521 | 56 | 222 | 1.7 | 5.2 | 0.00 | 0.00 | 0.00 | 69 | 1011.9 |
| 20260509143025 | 56 | 195 | 1.7 | 2.6 | 0.00 | 0.00 | 0.00 | 67 | 1011.7 |
| 20260509141506 | 56 | 266 | 0.9 | 2.6 | 0.00 | 0.00 | 0.00 | 67 | 1011.5 |
| 20260509140011 | 56 | 256 | 0.9 | 3.5 | 0.00 | 0.00 | 0.00 | 70 | 1011.5 |
| 20260509134515 | 56 | 289 | 0.9 | 2.6 | 0.00 | 0.00 | 0.00 | 71 | 1011.2 |
| 20260509133020 | 56 | 210 | 0.9 | 4.3 | 0.00 | 0.00 | 0.00 | 68 | 1011.0 |
| 20260509131534 | 56 | 207 | 0.9 | 3.5 | 0.00 | 0.00 | 0.00 | 67 | 1011.3 |
| 20260509130021 | 56 | 211 | 0.9 | 2.6 | 0.00 | 0.00 | 0.00 | 67 | 1011.1 |
| 20260509124522 | 55 | 286 | 0.9 | 1.7 | 0.00 | 0.00 | 0.00 | 75 | 1011.2 |
| 20260509123025 | 55 | 286 | 0.9 | 1.7 | 0.00 | 0.00 | 0.00 | 78 | 1011.3 |
| 20260509121531 | 54 | 6 | 0.0 | 1.7 | 0.00 | 0.00 | 0.00 | 81 | 1010.7 |
| 20260509120008 | 53 | 121 | 0.0 | 1.7 | 0.00 | 0.00 | 0.00 | 82 | 1010.9 |
| 20260509114512 | 52 | 113 | 0.9 | 2.6 | 0.00 | 0.00 | 0.00 | 81 | 1010.8 |
| 20260509113021 | 52 | 264 | 0.0 | 1.7 | 0.00 | 0.00 | 0.00 | 83 | 1010.7 |
| 20260509111523 | 51 | 262 | 0.0 | 0.0 | 0.00 | 0.00 | 0.00 | 83 | 1010.8 |
| 20260509110028 | 50 | 262 | 0.0 | 0.0 | 0.00 | 0.00 | 0.00 | 85 | 1010.8 |
| 20260509104508 | 50 | 345 | 0.0 | 1.7 | 0.00 | 0.00 | 0.00 | 83 | 1010.6 |
| 20260509103016 | 50 | 216 | 0.0 | 1.7 | 0.00 | 0.00 | 0.00 | 83 | 1010.6 |
| 20260509101523 | 50 | 228 | 1.7 | 2.6 | 0.00 | 0.00 | 0.00 | 82 | 1010.4 |
| 20260509100028 | 50 | 129 | 0.0 | 1.7 | 0.00 | 0.00 | 0.00 | 82 | 1010.2 |
| 20260509094527 | 49 | 135 | 0.0 | 1.7 | 0.00 | 0.00 | 0.00 | 82 | 1010.7 |
| 20260509093014 | 50 | 120 | 0.0 | 1.7 | 0.00 | 0.00 | 0.00 | 81 | 1010.4 |
| 20260509091520 | 50 | 122 | 0.0 | 1.7 | 0.00 | 0.00 | 0.00 | 79 | 1010.4 |
| 20260509090022 | 50 | 147 | 0.0 | 1.7 | 0.00 | 0.00 | 0.00 | 79 | 1010.7 |
| 20260509084534 | 50 | 83 | 0.0 | 1.7 | 0.00 | 0.00 | 0.00 | 78 | 1010.7 |
| 20260509083043 | 50 | 55 | 0.0 | 1.7 | 0.00 | 0.00 | 0.00 | 77 | 1010.9 |
| 20260509081516 | 49 | 84 | 0.0 | 1.7 | 0.00 | 0.00 | 0.00 | 80 | 1011.1 |
| 20260509080028 | 48 | 84 | 0.0 | 1.7 | 0.00 | 0.00 | 0.00 | 81 | 1011.0 |
| 20260509074524 | 48 | 84 | 0.0 | 0.0 | 0.00 | 0.00 | 0.00 | 81 | 1011.1 |
| 20260509073026 | 48 | 84 | 0.0 | 1.7 | 0.00 | 0.00 | 0.00 | 79 | 1011.2 |
| 20260509071516 | 49 | 84 | 0.0 | 1.7 | 0.00 | 0.00 | 0.00 | 78 | 1011.4 |
| 20260509070022 | 50 | 78 | 0.0 | 0.0 | 0.00 | 0.00 | 0.00 | 76 | 1011.3 |
| 20260509064522 | 51 | 78 | 0.0 | 1.7 | 0.00 | 0.00 | 0.00 | 73 | 1011.3 |
| 20260509063006 | 51 | 107 | 0.9 | 1.7 | 0.00 | 0.00 | 0.00 | 74 | 1011.4 |
| 20260509061515 | 52 | 248 | 0.9 | 1.7 | 0.00 | 0.00 | 0.00 | 76 | 1011.4 |
| 20260509060018 | 52 | 90 | 0.9 | 1.7 | 0.00 | 0.00 | 0.00 | 71 | 1011.4 |
| 20260509054524 | 51 | 145 | 0.0 | 0.9 | 0.00 | 0.00 | 0.00 | 76 | 1011.7 |
| 20260509053032 | 51 | 116 | 0.0 | 1.7 | 0.00 | 0.00 | 0.00 | 74 | 1011.8 |
| 20260509051508 | 51 | 116 | 0.0 | 1.7 | 0.00 | 0.00 | 0.00 | 77 | 1012.0 |
| 20260509050015 | 52 | 151 | 0.0 | 2.6 | 0.00 | 0.00 | 0.00 | 72 | 1011.9 |
| 20260509044518 | 51 | 113 | 0.0 | 1.7 | 0.00 | 0.00 | 0.00 | 73 | 1012.0 |
| 20260509043022 | 52 | 116 | 0.9 | 1.7 | 0.00 | 0.00 | 0.00 | 69 | 1012.1 |
| 20260509041537 | 53 | 219 | 0.0 | 1.7 | 0.00 | 0.00 | 0.00 | 69 | 1012.2 |
| 20260509040014 | 54 | 238 | 0.0 | 1.7 | 0.00 | 0.00 | 0.00 | 68 | 1012.1 |
| 20260509034516 | 54 | 204 | 0.0 | 1.7 | 0.00 | 0.00 | 0.00 | 67 | 1012.4 |
| 20260509033022 | 54 | 29 | 0.0 | 1.7 | 0.00 | 0.00 | 0.00 | 69 | 1012.4 |
| 20260509031530 | 56 | 108 | 0.0 | 1.7 | 0.00 | 0.00 | 0.00 | 60 | 1012.6 |
| 20260509030029 | 55 | 183 | 0.0 | 1.7 | 0.00 | 0.00 | 0.00 | 64 | 1012.7 |
| 20260509024514 | 53 | 197 | 2.6 | 5.2 | 0.00 | 0.00 | 0.00 | 71 | 1012.5 |
| 20260509023023 | 53 | 218 | 0.0 | 1.7 | 0.00 | 0.00 | 0.00 | 70 | 1012.0 |
| 20260509021527 | 54 | 219 | 0.0 | 1.7 | 0.00 | 0.00 | 0.00 | 68 | 1012.4 |